createdAt,value
2018-11-07T00:02:03.543Z,14.30
2018-11-07T00:04:31.743Z,22.90
2018-11-07T00:06:59.915Z,15.10
2018-11-07T00:09:28.082Z,15.60
2018-11-07T00:11:56.297Z,17.90
2018-11-07T00:14:24.455Z,13.23
2018-11-07T00:16:52.638Z,15.07
2018-11-07T00:19:20.889Z,13.97
2018-11-07T00:21:49.038Z,16.53
2018-11-07T00:24:17.194Z,14.73
2018-11-07T00:26:45.371Z,21.13
2018-11-07T00:29:13.544Z,12.17
2018-11-07T00:31:41.726Z,17.50
2018-11-07T00:34:09.917Z,12.70
2018-11-07T00:36:38.095Z,20.17
2018-11-07T00:39:07.621Z,12.33
2018-11-07T00:41:35.806Z,11.33
2018-11-07T00:44:04.206Z,15.60
2018-11-07T00:46:32.482Z,15.60
2018-11-07T00:49:01.027Z,15.63
2018-11-07T00:51:29.286Z,12.73
2018-11-07T00:53:57.467Z,15.37
2018-11-07T00:56:25.657Z,15.33
2018-11-07T00:58:53.917Z,11.83
2018-11-07T01:01:22.095Z,13.20
2018-11-07T01:03:50.309Z,18.23
2018-11-07T01:06:18.537Z,13.67
2018-11-07T01:08:46.707Z,16.87
2018-11-07T01:11:14.930Z,20.43
2018-11-07T01:13:43.085Z,18.43
2018-11-07T01:16:11.332Z,17.33
2018-11-07T01:18:39.517Z,18.07
2018-11-07T01:21:07.720Z,18.10
2018-11-07T01:23:35.882Z,14.07
2018-11-07T01:26:04.115Z,16.73
2018-11-07T01:28:32.290Z,11.70
2018-11-07T01:31:00.456Z,11.40
2018-11-07T01:33:28.626Z,15.33
2018-11-07T01:35:56.792Z,15.20
2018-11-07T01:38:24.977Z,14.57
2018-11-07T01:40:53.150Z,15.30
2018-11-07T01:43:21.330Z,19.60
2018-11-07T01:45:49.536Z,18.57
2018-11-07T01:48:17.718Z,16.17
2018-11-07T01:50:45.920Z,15.80
2018-11-07T01:53:14.128Z,17.10
2018-11-07T01:55:42.282Z,12.30
2018-11-07T01:58:10.465Z,16.33
2018-11-07T02:00:38.630Z,10.57
2018-11-07T02:03:06.807Z,14.87
2018-11-07T02:05:34.986Z,11.70
2018-11-07T02:08:03.197Z,13.17
2018-11-07T02:10:31.352Z,11.07
2018-11-07T02:12:59.522Z,18.20
2018-11-07T02:15:27.740Z,15.07
2018-11-07T02:17:55.952Z,17.80
2018-11-07T02:20:24.110Z,17.50
2018-11-07T02:22:52.290Z,14.20
2018-11-07T02:25:20.462Z,14.23
2018-11-07T02:27:48.638Z,20.03
2018-11-07T02:30:16.807Z,16.70
2018-11-07T02:32:45.134Z,12.07
2018-11-07T02:35:13.295Z,11.87
2018-11-07T02:37:41.646Z,12.63
2018-11-07T02:40:10.002Z,10.30
2018-11-07T02:42:38.397Z,16.87
2018-11-07T02:45:06.765Z,12.67
2018-11-07T02:47:34.930Z,14.97
2018-11-07T02:50:03.134Z,14.93
2018-11-07T02:52:31.342Z,20.07
2018-11-07T02:54:59.503Z,15.60
2018-11-07T02:57:27.732Z,11.20
2018-11-07T02:59:55.883Z,12.07
2018-11-07T03:02:24.051Z,12.80
2018-11-07T03:04:52.214Z,12.13
2018-11-07T03:07:20.382Z,12.63
2018-11-07T03:09:48.564Z,20.47
2018-11-07T03:12:16.735Z,15.13
2018-11-07T03:14:44.948Z,16.17
2018-11-07T03:17:13.110Z,16.93
2018-11-07T03:19:41.337Z,13.40
2018-11-07T03:22:09.548Z,11.80
2018-11-07T03:24:37.764Z,13.40
2018-11-07T03:27:05.961Z,11.77
2018-11-07T03:29:34.140Z,14.90
2018-11-07T03:32:02.315Z,10.87
2018-11-07T03:34:30.508Z,12.30
2018-11-07T03:36:58.683Z,11.10
2018-11-07T03:39:26.865Z,10.23
2018-11-07T03:41:55.026Z,12.13
2018-11-07T03:44:23.214Z,12.27
2018-11-07T03:46:51.387Z,15.80
2018-11-07T03:49:19.564Z,13.23
2018-11-07T03:51:47.777Z,13.70
2018-11-07T03:54:15.964Z,14.20
2018-11-07T03:56:44.138Z,12.83
2018-11-07T03:59:12.310Z,9.97
2018-11-07T04:01:40.475Z,12.60
2018-11-07T04:04:08.649Z,12.77
2018-11-07T04:06:36.818Z,13.97
2018-11-07T04:09:08.270Z,12.23
2018-11-07T04:11:36.531Z,14.30
2018-11-07T04:14:04.902Z,13.23
2018-11-07T04:16:33.075Z,17.70
2018-11-07T04:19:01.263Z,10.73
2018-11-07T04:21:29.458Z,12.30
2018-11-07T04:24:02.254Z,11.37
2018-11-07T04:26:31.767Z,12.78
2018-11-07T04:28:59.969Z,10.93
2018-11-07T04:31:28.415Z,12.67
2018-11-07T04:33:56.623Z,15.07
2018-11-07T04:36:25.067Z,14.47
2018-11-07T04:38:53.552Z,14.60
2018-11-07T04:41:21.714Z,12.57
2018-11-07T04:43:49.920Z,15.07
2018-11-07T04:46:20.547Z,17.03
2018-11-07T04:48:55.127Z,13.63
2018-11-07T04:51:23.318Z,13.07
2018-11-07T04:53:51.493Z,15.17
2018-11-07T04:56:19.677Z,21.47
2018-11-07T04:58:47.857Z,12.67
2018-11-07T05:01:16.050Z,16.17
2018-11-07T05:03:44.234Z,21.67
2018-11-07T05:06:12.507Z,16.80
2018-11-07T05:08:40.729Z,17.43
2018-11-07T05:11:08.879Z,25.60
2018-11-07T05:13:37.181Z,13.07
2018-11-07T05:16:05.390Z,14.60
2018-11-07T05:18:33.567Z,13.93
2018-11-07T05:21:01.756Z,22.43
2018-11-07T05:23:29.930Z,15.13
2018-11-07T05:25:58.133Z,15.97
2018-11-07T05:28:26.284Z,18.37
2018-11-07T05:30:54.458Z,13.33
2018-11-07T05:33:22.652Z,11.47
2018-11-07T05:35:50.834Z,12.63
2018-11-07T05:38:19.003Z,14.07
2018-11-07T05:40:47.190Z,18.62
2018-11-07T05:43:15.371Z,14.90
2018-11-07T05:45:43.554Z,16.63
2018-11-07T05:48:11.739Z,30.50
2018-11-07T05:50:39.931Z,22.40
2018-11-07T05:53:08.104Z,16.80
2018-11-07T05:55:36.290Z,24.63
2018-11-07T05:58:04.519Z,10.23
2018-11-07T06:00:32.718Z,17.40
2018-11-07T06:03:00.894Z,13.10
2018-11-07T06:05:29.495Z,26.83
2018-11-07T06:07:57.673Z,16.40
2018-11-07T06:10:25.882Z,20.23
2018-11-07T06:12:54.058Z,19.60
2018-11-07T06:15:22.243Z,14.70
2018-11-07T06:17:50.439Z,24.05
2018-11-07T06:20:18.622Z,19.57
2018-11-07T06:22:46.810Z,17.43
2018-11-07T06:25:14.994Z,23.00
2018-11-07T06:27:43.203Z,18.70
2018-11-07T06:30:12.422Z,12.57
2018-11-07T06:32:40.804Z,16.80
2018-11-07T06:35:09.834Z,21.27
2018-11-07T06:37:38.027Z,16.07
2018-11-07T06:40:07.888Z,16.60
2018-11-07T06:42:36.114Z,13.53
2018-11-07T06:45:04.399Z,15.70
2018-11-07T06:47:32.694Z,12.63
2018-11-07T06:50:00.875Z,12.80
2018-11-07T06:52:29.051Z,22.87
2018-11-07T06:54:57.234Z,15.80
2018-11-07T06:57:25.431Z,12.90
2018-11-07T06:59:53.611Z,15.57
2018-11-07T07:02:21.798Z,16.77
2018-11-07T07:04:49.977Z,12.53
2018-11-07T07:07:18.146Z,12.90
2018-11-07T07:09:46.326Z,16.00
2018-11-07T07:12:14.526Z,13.67
2018-11-07T07:14:42.717Z,12.33
2018-11-07T07:17:10.892Z,11.57
2018-11-07T07:19:39.181Z,19.23
2018-11-07T07:22:07.398Z,16.50
2018-11-07T07:24:35.562Z,15.23
2018-11-07T07:27:03.762Z,26.60
2018-11-07T07:29:31.948Z,13.90
2018-11-07T07:32:00.127Z,19.63
2018-11-07T07:34:28.294Z,15.57
2018-11-07T07:36:56.483Z,15.83
2018-11-07T07:39:24.659Z,18.03
2018-11-07T07:41:52.895Z,22.23
2018-11-07T07:44:21.067Z,17.07
2018-11-07T07:46:49.251Z,13.83
2018-11-07T07:49:17.543Z,13.73
2018-11-07T07:51:45.643Z,14.00
2018-11-07T07:54:13.818Z,13.30
2018-11-07T07:56:41.995Z,14.40
2018-11-07T07:59:10.179Z,11.70
2018-11-07T08:01:38.354Z,14.80
2018-11-07T08:04:06.547Z,20.93
2018-11-07T08:06:36.634Z,18.37
2018-11-07T08:09:07.798Z,29.10
2018-11-07T08:11:35.982Z,25.17
2018-11-07T08:14:04.272Z,22.80
2018-11-07T08:16:32.354Z,22.63
2018-11-07T08:19:00.551Z,32.20
2018-11-07T08:21:28.768Z,18.07
2018-11-07T08:23:56.944Z,25.97
2018-11-07T08:26:25.115Z,20.17
2018-11-07T08:28:53.405Z,23.30
2018-11-07T08:31:21.655Z,24.30
2018-11-07T08:33:49.835Z,27.37
2018-11-07T08:36:18.031Z,29.63
2018-11-07T08:38:46.219Z,20.80
2018-11-07T08:41:14.392Z,21.03
2018-11-07T08:43:42.654Z,20.00
2018-11-07T08:46:10.826Z,19.33
2018-11-07T08:48:39.039Z,18.67
2018-11-07T08:51:07.223Z,13.60
2018-11-07T08:53:35.403Z,22.43
2018-11-07T08:56:03.651Z,14.53
2018-11-07T08:58:44.008Z,13.93
2018-11-07T09:01:12.262Z,14.33
2018-11-07T09:03:40.436Z,12.83
2018-11-07T09:06:08.675Z,13.87
2018-11-07T09:08:36.895Z,12.50
2018-11-07T09:11:05.166Z,12.83
2018-11-07T09:13:33.442Z,14.33
2018-11-07T09:16:01.644Z,20.57
2018-11-07T09:18:29.860Z,18.20
2018-11-07T09:20:58.100Z,16.53
2018-11-07T09:23:26.340Z,17.13
2018-11-07T09:25:58.433Z,14.30
2018-11-07T09:28:26.790Z,12.50
2018-11-07T09:30:54.996Z,19.10
2018-11-07T09:33:23.241Z,16.00
2018-11-07T09:35:51.523Z,17.43
2018-11-07T09:38:19.798Z,19.97
2018-11-07T09:40:48.023Z,16.53
2018-11-07T09:43:16.247Z,20.27
2018-11-07T09:45:44.479Z,15.90
2018-11-07T09:48:12.727Z,16.60
2018-11-07T09:50:40.893Z,14.50
2018-11-07T09:53:09.096Z,12.53
2018-11-07T09:55:37.329Z,14.07
2018-11-07T09:58:05.634Z,18.40
2018-11-07T10:00:33.880Z,22.73
2018-11-07T10:03:02.159Z,17.67
2018-11-07T10:05:30.388Z,18.33
2018-11-07T10:07:58.583Z,15.40
2018-11-07T10:10:26.809Z,13.33
2018-11-07T10:12:55.016Z,15.40
2018-11-07T10:15:23.573Z,13.50
2018-11-07T10:17:51.823Z,12.27
2018-11-07T10:20:21.513Z,21.13
2018-11-07T10:22:49.946Z,18.27
2018-11-07T10:25:18.240Z,19.10
2018-11-07T10:27:46.746Z,17.43
2018-11-07T10:30:16.118Z,17.30
2018-11-07T10:32:45.153Z,12.63
2018-11-07T10:35:13.368Z,14.27
2018-11-07T10:37:41.611Z,17.53
2018-11-07T10:40:13.140Z,14.07
2018-11-07T10:42:41.479Z,12.60
2018-11-07T10:45:10.101Z,19.97
2018-11-07T10:47:38.311Z,15.93
2018-11-07T10:50:08.276Z,12.77
2018-11-07T10:52:36.511Z,12.47
2018-11-07T10:55:05.543Z,12.03
2018-11-07T10:57:33.790Z,16.17
2018-11-07T11:00:01.948Z,12.73
2018-11-07T11:02:35.431Z,8.77
2018-11-07T11:05:03.752Z,15.10
2018-11-07T11:07:31.877Z,11.30
2018-11-07T11:10:00.101Z,12.53
2018-11-07T11:12:28.331Z,9.00
2018-11-07T11:14:56.543Z,7.73
2018-11-07T11:17:24.789Z,8.95
2018-11-07T11:19:52.991Z,15.00
2018-11-07T11:22:21.220Z,9.20
2018-11-07T11:24:49.423Z,5.70
2018-11-07T11:27:17.722Z,6.00
2018-11-07T11:29:45.914Z,5.53
2018-11-07T11:32:14.108Z,7.80
2018-11-07T11:34:42.441Z,5.95
2018-11-07T11:37:10.595Z,4.50
2018-11-07T11:39:38.795Z,5.37
2018-11-07T11:42:07.009Z,6.70
2018-11-07T11:44:35.192Z,6.10
2018-11-07T11:47:03.439Z,3.23
2018-11-07T11:49:31.668Z,4.57
2018-11-07T11:51:59.868Z,9.33
2018-11-07T11:54:28.079Z,3.57
2018-11-07T11:56:56.408Z,3.63
2018-11-07T11:59:24.731Z,3.97
2018-11-07T12:01:52.851Z,7.50
2018-11-07T12:04:21.067Z,4.43
2018-11-07T12:06:49.343Z,3.30
2018-11-07T12:09:17.603Z,3.40
2018-11-07T12:11:45.859Z,4.10
2018-11-07T12:14:13.990Z,2.73
2018-11-07T12:16:42.270Z,5.00
2018-11-07T12:19:10.464Z,2.97
2018-11-07T12:21:38.676Z,3.37
2018-11-07T12:24:06.888Z,2.73
2018-11-07T12:26:35.193Z,8.07
2018-11-07T12:29:03.512Z,6.80
2018-11-07T12:31:31.708Z,2.53
2018-11-07T12:33:59.983Z,4.20
2018-11-07T12:36:28.256Z,7.30
2018-11-07T12:38:56.448Z,6.00
2018-11-07T12:41:24.645Z,5.30
2018-11-07T12:43:52.887Z,4.57
2018-11-07T12:46:21.108Z,3.80
2018-11-07T12:48:49.296Z,3.87
2018-11-07T12:51:17.496Z,6.20
2018-11-07T12:53:45.747Z,5.13
2018-11-07T12:56:13.950Z,8.43
2018-11-07T12:58:42.244Z,5.90
2018-11-07T13:01:10.510Z,4.47
2018-11-07T13:03:39.069Z,10.70
2018-11-07T13:06:07.408Z,8.80
2018-11-07T13:08:35.639Z,9.10
2018-11-07T13:11:03.959Z,9.03
2018-11-07T13:13:32.189Z,3.30
2018-11-07T13:16:00.417Z,5.40
2018-11-07T13:18:28.624Z,8.87
2018-11-07T13:20:56.874Z,5.13
2018-11-07T13:23:25.109Z,7.80
2018-11-07T13:25:54.209Z,7.10
2018-11-07T13:28:22.671Z,7.80
2018-11-07T13:30:50.710Z,10.73
2018-11-07T13:33:18.930Z,9.30
2018-11-07T13:35:47.122Z,11.17
2018-11-07T13:38:15.737Z,4.73
2018-11-07T13:40:43.570Z,10.30
2018-11-07T13:43:11.795Z,5.90
2018-11-07T13:45:39.980Z,8.67
2018-11-07T13:48:08.185Z,13.30
2018-11-07T13:50:36.389Z,9.20
2018-11-07T13:53:04.951Z,10.50
2018-11-07T13:55:33.892Z,11.47
2018-11-07T13:58:02.145Z,7.27
2018-11-07T14:00:30.340Z,17.00
2018-11-07T14:02:58.561Z,10.13
2018-11-07T14:05:26.817Z,11.33
2018-11-07T14:07:55.572Z,11.27
2018-11-07T14:10:25.092Z,14.83
2018-11-07T14:12:53.790Z,10.20
2018-11-07T14:15:22.060Z,7.73
2018-11-07T14:17:50.481Z,14.97
2018-11-07T14:20:18.646Z,9.20
2018-11-07T14:22:46.857Z,10.00
2018-11-07T14:25:15.293Z,10.17
2018-11-07T14:27:43.764Z,8.07
2018-11-07T14:30:13.579Z,12.87
2018-11-07T14:32:47.647Z,7.30
2018-11-07T14:35:15.833Z,9.73
2018-11-07T14:37:44.055Z,8.60
2018-11-07T14:40:12.119Z,14.13
2018-11-07T14:42:40.279Z,6.70
2018-11-07T14:45:08.964Z,8.00
2018-11-07T14:47:37.023Z,6.60
2018-11-07T14:50:05.583Z,8.27
2018-11-07T14:52:33.585Z,8.63
2018-11-07T14:55:01.811Z,9.67
2018-11-07T14:57:30.095Z,11.27
2018-11-07T14:59:58.339Z,9.90
2018-11-07T15:02:26.622Z,7.80
2018-11-07T15:04:54.792Z,9.10
2018-11-07T15:07:23.131Z,12.40
2018-11-07T15:09:51.588Z,11.97
2018-11-07T15:12:20.605Z,6.40
2018-11-07T15:14:49.399Z,7.20
2018-11-07T15:17:17.821Z,7.27
2018-11-07T15:19:46.309Z,14.13
2018-11-07T15:22:14.909Z,11.30
2018-11-07T15:24:43.295Z,12.10
2018-11-07T15:27:11.853Z,11.77
2018-11-07T15:29:40.235Z,17.30
2018-11-07T15:32:08.467Z,14.63
2018-11-07T15:34:36.742Z,8.70
2018-11-07T15:37:05.095Z,9.73
2018-11-07T15:39:33.559Z,10.10
2018-11-07T15:42:01.770Z,10.23
2018-11-07T15:44:29.963Z,11.73
2018-11-07T15:46:58.177Z,8.93
2018-11-07T15:49:26.419Z,13.90
2018-11-07T15:51:55.601Z,5.80
2018-11-07T15:54:23.747Z,6.53
2018-11-07T15:56:52.005Z,5.37
2018-11-07T15:59:20.211Z,6.33
2018-11-07T16:01:48.417Z,8.53
2018-11-07T16:04:16.623Z,10.50
2018-11-07T16:06:44.843Z,7.70
2018-11-07T16:09:13.072Z,8.17
2018-11-07T16:11:41.270Z,7.77
2018-11-07T16:14:09.544Z,5.97
2018-11-07T16:16:37.755Z,8.50
2018-11-07T16:19:05.983Z,18.23
2018-11-07T16:21:34.195Z,17.37
2018-11-07T16:24:02.567Z,8.90
2018-11-07T16:26:30.587Z,7.60
2018-11-07T16:28:58.549Z,14.80
2018-11-07T16:31:26.574Z,8.27
2018-11-07T16:33:54.501Z,13.43
2018-11-07T16:36:22.704Z,18.00
2018-11-07T16:38:50.906Z,14.57
2018-11-07T16:41:19.256Z,18.80
2018-11-07T16:43:47.382Z,18.43
2018-11-07T16:46:15.626Z,27.17
2018-11-07T16:48:43.819Z,20.47
2018-11-07T16:51:11.991Z,18.77
2018-11-07T16:53:40.198Z,23.93
2018-11-07T16:56:08.399Z,22.67
2018-11-07T16:58:37.015Z,33.47
2018-11-07T17:01:05.508Z,24.87
2018-11-07T17:03:34.184Z,23.63
2018-11-07T17:06:03.004Z,30.07
2018-11-07T17:08:31.776Z,30.73
2018-11-07T17:11:00.005Z,37.67
2018-11-07T17:13:28.338Z,35.87
2018-11-07T17:15:56.640Z,42.03
2018-11-07T17:18:24.747Z,36.00
2018-11-07T17:20:53.118Z,39.07
2018-11-07T17:23:21.290Z,38.13
2018-11-07T17:25:50.433Z,46.23
2018-11-07T17:28:18.863Z,28.40
2018-11-07T17:30:47.273Z,38.37
2018-11-07T17:33:15.563Z,39.60
2018-11-07T17:35:43.779Z,38.03
2018-11-07T17:38:12.192Z,40.97
2018-11-07T17:40:40.394Z,47.37
2018-11-07T17:43:08.708Z,42.70
2018-11-07T17:45:36.928Z,39.30
2018-11-07T17:48:05.426Z,45.07
2018-11-07T17:50:33.500Z,41.83
2018-11-07T17:53:01.716Z,42.50
2018-11-07T17:55:30.000Z,45.60
2018-11-07T17:57:58.294Z,48.93
2018-11-07T18:00:33.157Z,45.33
2018-11-07T18:03:01.530Z,42.70
2018-11-07T18:05:29.791Z,48.97
2018-11-07T18:07:58.232Z,54.13
2018-11-07T18:10:26.481Z,48.17
2018-11-07T18:12:54.705Z,57.67
2018-11-07T18:15:22.926Z,52.07
2018-11-07T18:17:51.221Z,48.60
2018-11-07T18:20:19.680Z,41.33
2018-11-07T18:22:48.512Z,45.57
2018-11-07T18:25:17.991Z,49.27
2018-11-07T18:27:46.227Z,52.40
2018-11-07T18:30:15.729Z,44.47
2018-11-07T18:32:44.814Z,48.40
2018-11-07T18:35:14.600Z,50.77
2018-11-07T18:37:43.052Z,57.03
2018-11-07T18:40:12.351Z,55.07
2018-11-07T18:42:40.705Z,51.80
2018-11-07T18:45:09.845Z,49.07
2018-11-07T18:47:38.494Z,56.27
2018-11-07T18:50:07.913Z,67.83
2018-11-07T18:52:36.081Z,62.83
2018-11-07T18:55:05.346Z,65.80
2018-11-07T18:57:33.745Z,79.13
2018-11-07T19:00:02.199Z,81.90
2018-11-07T19:02:30.426Z,60.50
2018-11-07T19:04:59.041Z,62.70
2018-11-07T19:07:27.478Z,83.63
2018-11-07T19:09:56.001Z,104.40
2018-11-07T19:12:28.391Z,111.67
2018-11-07T19:14:56.575Z,92.03
2018-11-07T19:17:24.787Z,81.23
2018-11-07T19:19:53.181Z,76.60
2018-11-07T19:22:21.501Z,64.67
2018-11-07T19:24:49.753Z,58.20
2018-11-07T19:27:18.065Z,48.30
2018-11-07T19:29:46.261Z,46.87
2018-11-07T19:32:14.488Z,58.10
2018-11-07T19:34:42.721Z,58.07
2018-11-07T19:37:10.958Z,60.13
2018-11-07T19:39:39.307Z,47.77
2018-11-07T19:42:07.544Z,54.80
2018-11-07T19:44:35.843Z,50.20
2018-11-07T19:47:04.096Z,50.27
2018-11-07T19:49:32.347Z,57.27
2018-11-07T19:52:00.612Z,52.50
2018-11-07T19:54:28.839Z,57.33
2018-11-07T19:56:57.256Z,43.60
2018-11-07T19:59:25.694Z,46.70
2018-11-07T20:01:54.052Z,48.50
2018-11-07T20:04:22.329Z,44.17
2018-11-07T20:06:50.561Z,57.10
2018-11-07T20:09:18.895Z,56.70
2018-11-07T20:11:47.102Z,56.77
2018-11-07T20:14:15.328Z,70.73
2018-11-07T20:16:43.734Z,75.03
2018-11-07T20:19:11.831Z,77.87
2018-11-07T20:21:40.130Z,80.87
2018-11-07T20:24:08.336Z,74.23
2018-11-07T20:26:36.602Z,82.97
2018-11-07T20:29:04.856Z,73.77
2018-11-07T20:31:33.117Z,65.00
2018-11-07T20:34:01.341Z,64.80
2018-11-07T20:36:29.575Z,67.20
2018-11-07T20:38:57.780Z,63.60
2018-11-07T20:41:26.036Z,78.80
2018-11-07T20:43:54.251Z,81.07
2018-11-07T20:46:22.459Z,81.60
2018-11-07T20:48:50.740Z,85.43
2018-11-07T20:51:18.896Z,87.47
2018-11-07T20:53:47.070Z,94.77
2018-11-07T20:56:15.252Z,61.90
2018-11-07T20:58:43.439Z,72.90
2018-11-07T21:01:11.625Z,58.43
2018-11-07T21:03:39.814Z,55.60
2018-11-07T21:06:08.011Z,82.77
2018-11-07T21:08:36.217Z,71.20
2018-11-07T21:11:04.526Z,69.83
2018-11-07T21:13:32.718Z,92.97
2018-11-07T21:16:00.912Z,84.17
2018-11-07T21:18:29.102Z,77.77
2018-11-07T21:20:57.315Z,86.37
2018-11-07T21:23:25.498Z,72.33
2018-11-07T21:25:53.692Z,65.87
2018-11-07T21:28:21.897Z,59.23
2018-11-07T21:30:50.112Z,59.30
2018-11-07T21:33:18.292Z,56.67
2018-11-07T21:35:46.493Z,51.20
2018-11-07T21:38:14.684Z,47.57
2018-11-07T21:40:42.880Z,54.50
2018-11-07T21:43:11.059Z,46.03
2018-11-07T21:45:39.242Z,45.80
2018-11-07T21:48:07.434Z,48.63
2018-11-07T21:50:35.630Z,42.83
2018-11-07T21:53:03.829Z,42.60
2018-11-07T21:55:32.033Z,39.37
2018-11-07T21:58:00.224Z,43.23
2018-11-07T22:00:28.406Z,54.30
2018-11-07T22:02:56.656Z,51.47
2018-11-07T22:05:24.774Z,46.97
2018-11-07T22:07:52.946Z,40.53
2018-11-07T22:10:21.150Z,55.17
2018-11-07T22:12:49.338Z,43.77
2018-11-07T22:15:17.526Z,45.10
2018-11-07T22:17:45.697Z,43.13
2018-11-07T22:20:17.384Z,41.57
2018-11-07T22:22:45.694Z,48.10
2018-11-07T22:25:13.979Z,47.07
2018-11-07T22:27:42.170Z,51.67
2018-11-07T22:30:12.206Z,56.40
2018-11-07T22:32:40.692Z,50.43
2018-11-07T22:35:10.506Z,47.00
2018-11-07T22:37:38.703Z,44.67
2018-11-07T22:40:08.254Z,47.13
2018-11-07T22:42:36.444Z,53.33
2018-11-07T22:45:04.955Z,46.80
2018-11-07T22:47:33.135Z,47.70
2018-11-07T22:50:01.323Z,46.50
2018-11-07T22:52:29.504Z,58.30
2018-11-07T22:54:57.739Z,51.40
2018-11-07T22:57:25.944Z,55.63
2018-11-07T22:59:54.132Z,48.40
2018-11-07T23:02:22.323Z,44.80
2018-11-07T23:04:50.524Z,48.73
2018-11-07T23:07:18.700Z,55.47
2018-11-07T23:09:46.902Z,55.90
2018-11-07T23:12:15.096Z,55.27
2018-11-07T23:14:43.311Z,48.33
2018-11-07T23:17:11.499Z,60.20
2018-11-07T23:19:39.818Z,56.00
2018-11-07T23:22:08.004Z,56.20
2018-11-07T23:24:36.192Z,57.13
2018-11-07T23:27:04.423Z,50.20
2018-11-07T23:29:32.595Z,55.63
2018-11-07T23:32:00.788Z,50.73
2018-11-07T23:34:28.979Z,58.93
2018-11-07T23:36:57.174Z,49.83
2018-11-07T23:39:25.368Z,54.00
2018-11-07T23:41:53.591Z,48.70
2018-11-07T23:44:21.770Z,60.87
2018-11-07T23:46:49.950Z,59.30
2018-11-07T23:49:18.135Z,69.23
2018-11-07T23:51:48.486Z,74.00
2018-11-07T23:54:17.646Z,72.20
2018-11-07T23:56:45.831Z,63.83
2018-11-07T23:59:14.014Z,62.77
